Royal Prince — WCX8037 — position and weather

sailwx.info

Track history (hours):
 
Tides and Currents Weather Stations Pressure Air Temp Water Temp Dewpoint Dewpoint Depression Visibility Wind Speed Wind Dir Waves Ship Positions

Royal Prince

Owner: Golden Gate Scenic Steamship Corp, SAN FRANCISCO, CA. More information available from US FCC via Universal Licensing System and Coast Guard Vessel Documentation Center.

Last reported at 2016-Jun-25 01:33 UTC. Time now 2016-Jun-25 01:48 UTC.
Position N 37°49' W 122°28'.

; draft 3 m.

Type: Passenger vessel. MMSI: 366975760.

Date/timePositionNaut miles runAvg speedWind from/ knotsBaromVisibWave heightAir tempDewpointWater temp
2016-Jun-25 01:33N 37°49' W 122°28'1 1.5
2016-Jun-25 00:33N 37°50' W 122°27'2 1.8
2016-Jun-24 23:33N 37°49' W 122°24'1 0.6
2016-Jun-24 22:33N 37°49' W 122°25'0 0.1
2016-Jun-24 21:33N 37°49' W 122°25'3 2.7
2016-Jun-24 20:34N 37°49' W 122°28'3 2.7
2016-Jun-24 19:33N 37°49' W 122°25'2 1.8
2016-Jun-24 18:33N 37°49' W 122°27'1 1.0
2016-Jun-24 17:33N 37°50' W 122°27'2 1.8
2016-Jun-24 16:33N 37°49' W 122°25'1 0.1
2016-Jun-24 00:12N 37°49' W 122°27'1 1.0
2016-Jun-23 23:05N 37°49' W 122°28'0 0.1
2016-Jun-23 20:28N 37°49' W 122°27'2 1.5
2016-Jun-23 19:07N 37°49' W 122°25'2 4.3
2016-Jun-23 18:33N 37°49' W 122°28'1 0.6
2016-Jun-23 17:22N 37°49' W 122°29'3 0.4
2016-Jun-23 10:13N 37°49' W 122°25'0 0.0
2016-Jun-23 08:27N 37°49' W 122°25'0 0.0
2016-Jun-23 02:10N 37°49' W 122°25'2 3.8
2016-Jun-23 01:33N 37°49' W 122°28'1 0.7
2016-Jun-23 00:24N 37°49' W 122°29'3 3.3
2016-Jun-22 23:29N 37°50' W 122°25'1 0.7
2016-Jun-22 22:21N 37°49' W 122°24'0 0.4
2016-Jun-22 21:04N 37°49' W 122°25'3 6.0
2016-Jun-22 20:33N 37°49' W 122°29'3 2.3
2016-Jun-22 19:11N 37°49' W 122°25'2 3.4
2016-Jun-22 18:33N 37°49' W 122°28'1 0.7
2016-Jun-22 17:29N 37°49' W 122°28'0 0.0
2016-Jun-22 00:23N 37°49' W 122°29'2 1.7
2016-Jun-21 23:24N 37°50' W 122°27'2 1.7
2016-Jun-21 22:30N 37°49' W 122°25'0 0.1
2016-Jun-21 21:08N 37°49' W 122°25'2 3.7
2016-Jun-21 20:33N 37°49' W 122°28'2 1.6
2016-Jun-21 19:12N 37°49' W 122°25'2 3.3
2016-Jun-21 18:33N 37°49' W 122°28'1 0.7
2016-Jun-21 17:29N 37°49' W 122°28'3 2.9
2016-Jun-21 16:33N 37°49' W 122°25'0 0.0
2016-Jun-21 15:33N 37°49' W 122°25'0 0.0
2016-Jun-21 02:28N 37°49' W 122°25'2 2.6
2016-Jun-21 01:33N 37°49' W 122°28'0 0.4
2016-Jun-21 00:33N 37°49' W 122°28'2 2.1
2016-Jun-20 23:33N 37°49' W 122°25'1 0.9
2016-Jun-20 22:32N 37°49' W 122°25'0 0.0
2016-Jun-20 21:33N 37°49' W 122°25'3 3.0
2016-Jun-20 20:33N 37°49' W 122°29'3 3.0
2016-Jun-20 19:33N 37°49' W 122°25'2 1.7
2016-Jun-20 18:33N 37°49' W 122°27'1 0.9
2016-Jun-20 17:33N 37°49' W 122°28'2 0.2
2016-Jun-20 02:25N 37°49' W 122°25'1 0.7
2016-Jun-20 01:33N 37°49' W 122°26'1 1.2
2016-Jun-20 00:33N 37°49' W 122°27'1 0.6
2016-Jun-19 23:33N 37°49' W 122°27'2 2.2
2016-Jun-19 22:34N 37°49' W 122°25'1 0.7
2016-Jun-19 21:33N 37°49' W 122°25'2 2.4
2016-Jun-19 20:34N 37°49' W 122°28'2 2.3
2016-Jun-19 19:31N 37°49' W 122°25'1 0.6
2016-Jun-19 18:33N 37°49' W 122°26'2 2.4
2016-Jun-19 17:33N 37°49' W 122°28'3 0.2
2016-Jun-19 02:33N 37°49' W 122°25'1 1.4
2016-Jun-19 01:33N 37°49' W 122°27'1 0.7
2016-Jun-19 00:33N 37°50' W 122°27'2 1.7
2016-Jun-18 23:33N 37°49' W 122°25'1 0.8
2016-Jun-18 22:33N 37°49' W 122°25'0 0.0
2016-Jun-18 21:33N 37°49' W 122°25'3 2.9
2016-Jun-18 20:33N 37°49' W 122°28'3 2.8
2016-Jun-18 19:33N 37°49' W 122°25'2 1.8
2016-Jun-18 18:34N 37°49' W 122°27'1 0.7
2016-Jun-18 17:34N 37°50' W 122°27'2 0.1
2016-Jun-18 02:24N 37°49' W 122°25'2 2.4
2016-Jun-18 01:33N 37°49' W 122°27'1 1.3
2016-Jun-18 00:33N 37°50' W 122°26'2 1.6
2016-Jun-17 23:33N 37°49' W 122°24'1 0.5
2016-Jun-17 22:33N 37°49' W 122°25'0 0.2
2016-Jun-17 21:33N 37°49' W 122°25'3 2.8
2016-Jun-17 20:33N 37°49' W 122°28'3 2.9
2016-Jun-17 19:32N 37°49' W 122°25'2 2.5
2016-Jun-17 18:33N 37°49' W 122°28'1 1.5
2016-Jun-17 17:33N 37°50' W 122°26'2 1.5
2016-Jun-17 16:31N 37°49' W 122°25'0 0.0
2016-Jun-17 02:24N 37°49' W 122°25'2 2.5
2016-Jun-17 01:33N 37°49' W 122°27'1 0.6
2016-Jun-17 00:34N 37°50' W 122°27'2 1.9
2016-Jun-16 23:33N 37°49' W 122°25'1 0.7
2016-Jun-16 22:34N 37°49' W 122°25'0 0.0
2016-Jun-16 21:34N 37°49' W 122°25'3 3.1
2016-Jun-16 20:34N 37°49' W 122°29'3 2.9
2016-Jun-16 19:31N 37°49' W 122°25'2 2.6
2016-Jun-16 18:34N 37°49' W 122°28'1 1.1
2016-Jun-16 17:33N 37°50' W 122°27'2 0.1
2016-Jun-16 04:16N 37°49' W 122°25'3 3.6
2016-Jun-16 03:33N 37°49' W 122°28'3 3.0
2016-Jun-16 02:33N 37°50' W 122°25'2 1.8
2016-Jun-16 01:33N 37°49' W 122°25'0 0.0
2016-Jun-16 00:33N 37°49' W 122°25'2 1.8
2016-Jun-15 23:33N 37°50' W 122°27'2 2.5
2016-Jun-15 22:33N 37°49' W 122°24'2 2.3
2016-Jun-15 21:33N 37°49' W 122°27'2 2.0
2016-Jun-15 20:33N 37°49' W 122°24'1 0.7
2016-Jun-15 19:28N 37°49' W 122°25'0 0.1
2016-Jun-15 18:33N 37°49' W 122°25'2 1.7
2016-Jun-15 17:34N 37°50' W 122°27'2 0.1
2016-Jun-15 02:17N 37°49' W 122°25'  
Track history (hours):
 
Tides and Currents Weather Stations Pressure Air Temp Water Temp Dewpoint Dewpoint Depression Visibility Wind Speed Wind Dir Waves Ship Positions

Royal Prince

Owner: Golden Gate Scenic Steamship Corp, SAN FRANCISCO, CA. More information available from US FCC via Universal Licensing System and Coast Guard Vessel Documentation Center.

Last reported at 2016-Jun-25 01:33 UTC. Time now 2016-Jun-25 01:48 UTC.
Position N 37°49' W 122°28'.

; draft 3 m.

Type: Passenger vessel. MMSI: 366975760.

Date/timePositionNaut miles runAvg speedWind from/ knotsBaromVisibWave heightAir tempDewpointWater temp
2016-Jun-25 01:33N 37°49' W 122°28'1 1.5
2016-Jun-25 00:33N 37°50' W 122°27'2 1.8
2016-Jun-24 23:33N 37°49' W 122°24'1 0.6
2016-Jun-24 22:33N 37°49' W 122°25'0 0.1
2016-Jun-24 21:33N 37°49' W 122°25'3 2.7
2016-Jun-24 20:34N 37°49' W 122°28'3 2.7
2016-Jun-24 19:33N 37°49' W 122°25'2 1.8
2016-Jun-24 18:33N 37°49' W 122°27'1 1.0
2016-Jun-24 17:33N 37°50' W 122°27'2 1.8
2016-Jun-24 16:33N 37°49' W 122°25'1 0.1
2016-Jun-24 00:12N 37°49' W 122°27'1 1.0
2016-Jun-23 23:05N 37°49' W 122°28'0 0.1
2016-Jun-23 20:28N 37°49' W 122°27'2 1.5
2016-Jun-23 19:07N 37°49' W 122°25'2 4.3
2016-Jun-23 18:33N 37°49' W 122°28'1 0.6
2016-Jun-23 17:22N 37°49' W 122°29'3 0.4
2016-Jun-23 10:13N 37°49' W 122°25'0 0.0
2016-Jun-23 08:27N 37°49' W 122°25'0 0.0
2016-Jun-23 02:10N 37°49' W 122°25'2 3.8
2016-Jun-23 01:33N 37°49' W 122°28'1 0.7
2016-Jun-23 00:24N 37°49' W 122°29'3 3.3
2016-Jun-22 23:29N 37°50' W 122°25'1 0.7
2016-Jun-22 22:21N 37°49' W 122°24'0 0.4
2016-Jun-22 21:04N 37°49' W 122°25'3 6.0
2016-Jun-22 20:33N 37°49' W 122°29'3 2.3
2016-Jun-22 19:11N 37°49' W 122°25'2 3.4
2016-Jun-22 18:33N 37°49' W 122°28'1 0.7
2016-Jun-22 17:29N 37°49' W 122°28'0 0.0
2016-Jun-22 00:23N 37°49' W 122°29'2 1.7
2016-Jun-21 23:24N 37°50' W 122°27'2 1.7
2016-Jun-21 22:30N 37°49' W 122°25'0 0.1
2016-Jun-21 21:08N 37°49' W 122°25'2 3.7
2016-Jun-21 20:33N 37°49' W 122°28'2 1.6
2016-Jun-21 19:12N 37°49' W 122°25'2 3.3
2016-Jun-21 18:33N 37°49' W 122°28'1 0.7
2016-Jun-21 17:29N 37°49' W 122°28'3 2.9
2016-Jun-21 16:33N 37°49' W 122°25'0 0.0
2016-Jun-21 15:33N 37°49' W 122°25'0 0.0
2016-Jun-21 02:28N 37°49' W 122°25'2 2.6
2016-Jun-21 01:33N 37°49' W 122°28'0 0.4
2016-Jun-21 00:33N 37°49' W 122°28'2 2.1
2016-Jun-20 23:33N 37°49' W 122°25'1 0.9
2016-Jun-20 22:32N 37°49' W 122°25'0 0.0
2016-Jun-20 21:33N 37°49' W 122°25'3 3.0
2016-Jun-20 20:33N 37°49' W 122°29'3 3.0
2016-Jun-20 19:33N 37°49' W 122°25'2 1.7
2016-Jun-20 18:33N 37°49' W 122°27'1 0.9
2016-Jun-20 17:33N 37°49' W 122°28'2 0.2
2016-Jun-20 02:25N 37°49' W 122°25'1 0.7
2016-Jun-20 01:33N 37°49' W 122°26'1 1.2
2016-Jun-20 00:33N 37°49' W 122°27'1 0.6
2016-Jun-19 23:33N 37°49' W 122°27'2 2.2
2016-Jun-19 22:34N 37°49' W 122°25'1 0.7
2016-Jun-19 21:33N 37°49' W 122°25'2 2.4
2016-Jun-19 20:34N 37°49' W 122°28'2 2.3
2016-Jun-19 19:31N 37°49' W 122°25'1 0.6
2016-Jun-19 18:33N 37°49' W 122°26'2 2.4
2016-Jun-19 17:33N 37°49' W 122°28'3 0.2
2016-Jun-19 02:33N 37°49' W 122°25'1 1.4
2016-Jun-19 01:33N 37°49' W 122°27'1 0.7
2016-Jun-19 00:33N 37°50' W 122°27'2 1.7
2016-Jun-18 23:33N 37°49' W 122°25'1 0.8
2016-Jun-18 22:33N 37°49' W 122°25'0 0.0
2016-Jun-18 21:33N 37°49' W 122°25'3 2.9
2016-Jun-18 20:33N 37°49' W 122°28'3 2.8
2016-Jun-18 19:33N 37°49' W 122°25'2 1.8
2016-Jun-18 18:34N 37°49' W 122°27'1 0.7
2016-Jun-18 17:34N 37°50' W 122°27'2 0.1
2016-Jun-18 02:24N 37°49' W 122°25'2 2.4
2016-Jun-18 01:33N 37°49' W 122°27'1 1.3
2016-Jun-18 00:33N 37°50' W 122°26'2 1.6
2016-Jun-17 23:33N 37°49' W 122°24'1 0.5
2016-Jun-17 22:33N 37°49' W 122°25'0 0.2
2016-Jun-17 21:33N 37°49' W 122°25'3 2.8
2016-Jun-17 20:33N 37°49' W 122°28'3 2.9
2016-Jun-17 19:32N 37°49' W 122°25'2 2.5
2016-Jun-17 18:33N 37°49' W 122°28'1 1.5
2016-Jun-17 17:33N 37°50' W 122°26'2 1.5
2016-Jun-17 16:31N 37°49' W 122°25'0 0.0
2016-Jun-17 02:24N 37°49' W 122°25'2 2.5
2016-Jun-17 01:33N 37°49' W 122°27'1 0.6
2016-Jun-17 00:34N 37°50' W 122°27'2 1.9
2016-Jun-16 23:33N 37°49' W 122°25'1 0.7
2016-Jun-16 22:34N 37°49' W 122°25'0 0.0
2016-Jun-16 21:34N 37°49' W 122°25'3 3.1
2016-Jun-16 20:34N 37°49' W 122°29'3 2.9
2016-Jun-16 19:31N 37°49' W 122°25'2 2.6
2016-Jun-16 18:34N 37°49' W 122°28'1 1.1
2016-Jun-16 17:33N 37°50' W 122°27'2 0.1
2016-Jun-16 04:16N 37°49' W 122°25'3 3.6
2016-Jun-16 03:33N 37°49' W 122°28'3 3.0
2016-Jun-16 02:33N 37°50' W 122°25'2 1.8
2016-Jun-16 01:33N 37°49' W 122°25'0 0.0
2016-Jun-16 00:33N 37°49' W 122°25'2 1.8
2016-Jun-15 23:33N 37°50' W 122°27'2 2.5
2016-Jun-15 22:33N 37°49' W 122°24'2 2.3
2016-Jun-15 21:33N 37°49' W 122°27'2 2.0
2016-Jun-15 20:33N 37°49' W 122°24'1 0.7
2016-Jun-15 19:28N 37°49' W 122°25'0 0.1
2016-Jun-15 18:33N 37°49' W 122°25'2 1.7
2016-Jun-15 17:34N 37°50' W 122°27'2 0.1
2016-Jun-15 02:17N 37°49' W 122°25'  

Dump ship's entire track history